Nsu Inspire — 3FID5 — position and weather

sailwx.info

Track history (hours):
 
Tides and Currents Weather Stations Pressure Air Temp Water Temp Dewpoint Dewpoint Depression Visibility Wind Speed Wind Dir Waves Ship Positions

Nsu Inspire

Last reported at 2018-Mar-29 07:38 UTC. Time now 2018-Apr-25 22:06 UTC.
Position S 23°40' W 043°02'.
Warning: this ship's position is 27 days out of date.

Length 330 m; draft 18.3 m.

Type: Cargo ship. MMSI: 372998000.

Date/timePositionNaut miles runAvg speedWind from/ knotsBaromVisibWave heightAir tempDewpointWater temp
2018-Mar-29 07:38S 23°40' W 043°02'810.9
2018-Mar-29 06:51S 23°36' W 043°10'411.2
2018-Mar-29 06:30S 23°34' W 043°13'511.1
2018-Mar-29 06:00S 23°32' W 043°19'611.2
2018-Mar-29 05:30S 23°29' W 043°24'611.2
2018-Mar-29 04:59S 23°26' W 043°29'511.3
2018-Mar-29 04:30S 23°23' W 043°34'611.3
2018-Mar-29 04:00S 23°20' W 043°39'611.3
2018-Mar-29 03:30S 23°17' W 043°45'1111.7
2018-Mar-29 02:32S 23°11' W 043°56'411.3
2018-Mar-29 02:09S 23°09' W 043°60'210.6
2018-Mar-29 02:00S 23°09' W 044°01'5 9.1
2018-Mar-29 01:26S 23°05' W 044°05'  
2018-Mar-21 10:51S 23°07' W 044°03'2 6.7
2018-Mar-21 10:30S 23°09' W 044°01'  
Track history (hours):
 
Tides and Currents Weather Stations Pressure Air Temp Water Temp Dewpoint Dewpoint Depression Visibility Wind Speed Wind Dir Waves Ship Positions

Nsu Inspire

Last reported at 2018-Mar-29 07:38 UTC. Time now 2018-Apr-25 22:06 UTC.
Position S 23°40' W 043°02'.
Warning: this ship's position is 27 days out of date.

Length 330 m; draft 18.3 m.

Type: Cargo ship. MMSI: 372998000.

Date/timePositionNaut miles runAvg speedWind from/ knotsBaromVisibWave heightAir tempDewpointWater temp
2018-Mar-29 07:38S 23°40' W 043°02'810.9
2018-Mar-29 06:51S 23°36' W 043°10'411.2
2018-Mar-29 06:30S 23°34' W 043°13'511.1
2018-Mar-29 06:00S 23°32' W 043°19'611.2
2018-Mar-29 05:30S 23°29' W 043°24'611.2
2018-Mar-29 04:59S 23°26' W 043°29'511.3
2018-Mar-29 04:30S 23°23' W 043°34'611.3
2018-Mar-29 04:00S 23°20' W 043°39'611.3
2018-Mar-29 03:30S 23°17' W 043°45'1111.7
2018-Mar-29 02:32S 23°11' W 043°56'411.3
2018-Mar-29 02:09S 23°09' W 043°60'210.6
2018-Mar-29 02:00S 23°09' W 044°01'5 9.1
2018-Mar-29 01:26S 23°05' W 044°05'  
2018-Mar-21 10:51S 23°07' W 044°03'2 6.7
2018-Mar-21 10:30S 23°09' W 044°01'  

Dump ship's entire track history